Hidalgo, Texas
Current Conditions -  °F | °C
As of 2:53 PM on Monday 24 Nov 2014 (Local Time) from KMFE Reporting Station
Clear Clear  
Wind Chill: 69°   Ceiling: Unl
Heat Index: 69°   Visibility: 10mi
Dew Point: 41°   Wind: 10mph
Humidity: 36%   Direction: 350°N
Pressure: 30.02"   Gusts: NA
Location:  26.1°N, 98.26°W
Report Text: KMFE 242053Z 35009KT 10SM CLR 21/05 A3002 RMK AO2 SLP162 T02060050 56023
Loading
Personal Weather Stations






























Interactive Weather Map New forecast layout! Learn more

10-Day Weather Forecast

Advertisements
Track Severe Weather on mobile